Aviation Digital Data Service (ADDS)

Output produced by METARs form (0242 UTC 24 July 2017)
found at http://www.aviationweather.gov/adds/metars/
 
EGAA 240220Z VRB03KT 4500 BR SCT002 BKN005 14/13 Q1018
TAF AMD EGAA 240000Z 2400/2424 34007KT 9999 FEW030 
     PROB40 2400/2408 4000 BR BKN004 
     PROB40 2421/2424 BKN008
       
EGPL 240220Z AUTO 06003KT 9999 NCD 12/11 Q1019
TAF EGPL 240203Z 2403/2412 05007KT 9999 FEW020 
     PROB30 
     TEMPO 2403/2409 BKN008
       
EGUB 240150Z AUTO 25007KT 6000 // SCT005/// BKN019/// 14/14 Q1011
EGBB 240220Z 33014KT 9999 OVC014 15/13 Q1011
TAF EGBB 232301Z 2400/2424 28009KT 9999 FEW013 SCT025 
     BECMG 2400/2403 34010KT 
     TEMPO 2400/2406 7000 RA BKN013 
     PROB30 
     TEMPO 2400/2406 BKN009 
     PROB30 
     TEMPO 2406/2409 BKN014 
     BECMG 2418/2421 04004KT
       
EGDM 240150Z AUTO 30010KT 6000 -RA SCT023/// BKN032/// 14/13 Q1012
EGHH 232120Z 26003KT CAVOK 14/13 Q1013
TAF EGHH 231958Z 2321/2406 29009KT 9999 FEW025 
     PROB30 
     TEMPO 2402/2406 8000 -RA BKN012
       
EGGD 240220Z AUTO 28011KT 9999 OVC017 14/13 Q1013
TAF EGGD 232302Z 2400/2424 27007KT 9999 FEW012 SCT025 
     TEMPO 2401/2406 8000 -RA BKN008 
     BECMG 2403/2406 33010KT
       
EGVN 240232Z 31009KT 6000 -RA BKN010 OVC018 15/14 Q1011 GRN TEMPO 9999 NSW FEW010 OVC018 WHT
TAF EGVN 240130Z 2403/2503 30008KT 9999 BKN020 
     TEMPO 2403/2410 5000 -RA BKN012 
     PROB40 
     TEMPO 2403/2408 4000 -RADZ SCT006 
     BECMG 2405/2407 36015KT 
     BECMG 2411/2413 SCT030 
     BECMG 2417/2419 33007KT
       
EGAA 240220Z VRB03KT 4500 BR SCT002 BKN005 14/13 Q1018
TAF AMD EGAA 240000Z 2400/2424 34007KT 9999 FEW030 
     PROB40 2400/2408 4000 BR BKN004 
     PROB40 2421/2424 BKN008
       
EGAC 232120Z 32010KT CAVOK 18/14 Q1016
EGAE 232050Z 28007KT 9999 FEW012 17/14 Q1018
EGBB 240220Z 33014KT 9999 OVC014 15/13 Q1011
TAF EGBB 232301Z 2400/2424 28009KT 9999 FEW013 SCT025 
     BECMG 2400/2403 34010KT 
     TEMPO 2400/2406 7000 RA BKN013 
     PROB30 
     TEMPO 2400/2406 BKN009 
     PROB30 
     TEMPO 2406/2409 BKN014 
     BECMG 2418/2421 04004KT
       
EGCC 240220Z AUTO 33008KT 9999 OVC024 16/12 Q1013 NOSIG
TAF EGCC 232301Z 2400/2506 33009KT 9999 FEW012 SCT018 
     TEMPO 2400/2407 BKN012 
     TEMPO 2500/2506 8000 BKN010
       
EGCN 240220Z 35013KT 9999 BKN011 OVC016 15/14 Q1012
TAF AMD EGCN 240058Z 2400/2424 34008KT 9999 BKN012 
     TEMPO 2400/2412 6000 RA -RADZ 
     TEMPO 2400/2409 BKN003 
     BECMG 2410/2413 SCT015
       
EGDM 240150Z AUTO 30010KT 6000 -RA SCT023/// BKN032/// 14/13 Q1012
EGDR 240150Z AUTO 25004KT 9999 // NCD 14/13 Q1017
EGDX 240150Z AUTO 28009KT 9999 BKN026/// BKN110/// 15/13 Q1014
EGDY 240150Z 28008KT 9999 FEW030 SCT040 BKN050 15/13 Q1013 BLU
EGFF 240220Z AUTO 29011KT 9999 BKN022 14/13 Q1014
TAF EGFF 232301Z 2400/2424 29012KT 9999 FEW014 
     PROB30 
     TEMPO 2400/2403 BKN014
       
EGGD 240220Z AUTO 28011KT 9999 OVC017 14/13 Q1013
TAF EGGD 232302Z 2400/2424 27007KT 9999 FEW012 SCT025 
     TEMPO 2401/2406 8000 -RA BKN008 
     BECMG 2403/2406 33010KT
       
EGGP 240220Z AUTO 33013KT 9999 FEW037/// 16/13 Q1014
TAF EGGP 232301Z 2400/2424 33012KT 9999 FEW020
       
EGGW 240220Z AUTO 22006KT 5000 -DZ OVC003 12/12 Q1010 RERA
TAF AMD EGGW 240138Z 2401/2424 27007KT 9999 SCT030 
     BECMG 2401/2404 33012KT BKN008 
     TEMPO 2401/2415 8000 RA 
     PROB40 
     TEMPO 2401/2407 3000 RADZ BKN003 
     PROB30 
     TEMPO 2409/2416 33015G25KT 
     BECMG 2412/2415 BKN012 
     BECMG 2415/2418 SCT020
       
EGHH 232120Z 26003KT CAVOK 14/13 Q1013
TAF EGHH 231958Z 2321/2406 29009KT 9999 FEW025 
     PROB30 
     TEMPO 2402/2406 8000 -RA BKN012
       
EGHI 232150Z 20001KT 9999 MIFG FEW025 13/11 Q1013
EGHQ 232050Z 31008KT 9999 SCT013 15/12 Q1016
TAF EGJB 240155Z 2403/2412 30014KT 9999 SCT012 
     PROB30 
     TEMPO 2403/2407 BKN011
       
EGJJ 232050Z 29011KT 9999 BKN008 15/14 Q1015 TEMPO SCT008
TAF EGJJ 240155Z 2403/2412 30014KT 9999 SCT012 
     TEMPO 2403/2407 BKN011
       
EGKK 240220Z 21004KT 9999 -RA FEW043 14/13 Q1011
TAF EGKK 232301Z 2400/2506 26005KT 9999 FEW015 SCT030 
     TEMPO 2400/2412 7000 RA BKN012 
     PROB30 
     TEMPO 2403/2409 BKN008 
     BECMG 2406/2409 32010KT 
     PROB30 
     TEMPO 2412/2418 8000 -RA 
     PROB30 
     TEMPO 2500/2506 BKN012
       
EGLC 240220Z AUTO 27009KT 240V310 9999 -RA FEW045/// //////TCU 16/14 Q1010
TAF EGLC 240156Z 2403/2412 26005KT 9999 SCT030 
     BECMG 2403/2406 BKN012 
     TEMPO 2403/2412 8000 RA BKN008 
     PROB30 
     TEMPO 2404/2410 4000 RADZ 
     BECMG 2405/2408 33012KT
       
EGLL 240220Z AUTO 26008KT 9999 -RA SCT012 OVC026 15/13 Q1011 TEMPO 7000 RADZ BKN010
TAF EGLL 232257Z 2400/2506 28008KT 9999 SCT045 
     BECMG 2400/2403 7000 -RA BKN012 
     TEMPO 2403/2409 BKN008 
     PROB30 
     TEMPO 2404/2407 4500 RADZ 
     BECMG 2406/2409 34011KT 9999 NSW SCT018 
     TEMPO 2411/2418 33015G26KT
       
EGMC 240150Z 27005KT 9999 -RA FEW009 14/12 Q1010
TAF EGMC 240156Z 2403/2412 27007KT 9999 FEW015 SCT025 
     TEMPO 2403/2412 8000 RA 
     BECMG 2404/2407 34014KT BKN012 
     PROB30 
     TEMPO 2406/2410 4000 RADZ BKN007
       
EGMD 240220Z AUTO 29006KT 9999 -RA NCD 14/14 Q1010
TAF EGMD 240156Z 2403/2412 28007KT 9999 SCT040 
     TEMPO 2404/2412 8000 RA BKN014 
     PROB30 
     TEMPO 2405/2410 4000 RADZ BKN009 
     BECMG 2406/2409 34012KT
       
EGNJ 240220Z AUTO 34012KT 9999 BKN004/// OVC007/// 15/15 Q1010
TAF EGNJ 240201Z 2403/2412 35012KT 9999 BKN010 
     TEMPO 2403/2412 3000 RA BKN003
       
EGNM 240220Z 01015KT 340V050 8000 BKN011 13/12 Q1012
TAF AMD EGNM 240231Z 2402/2424 36014KT 9999 SCT007 BKN012 
     TEMPO 2402/2404 01017G27KT 
     TEMPO 2402/2409 3000 RADZ BKN004 
     TEMPO 2409/2412 8000 BKN008 
     BECMG 2412/2415 SCT018 
     BECMG 2419/2422 36004KT 
     PROB30 2421/2424 BKN012
       
EGNS 240150Z VRB03KT 9999 FEW012 16/12 Q1016
EGNT 240220Z 34013KT 7000 -RA BKN005 13/12 Q1014
TAF EGNT 232257Z 2400/2424 35012KT 9999 BKN007 
     PROB40 2400/2410 6000 -RA BKN004 
     PROB30 
     TEMPO 2400/2410 01015G25KT 
     BECMG 2409/2412 SCT015 
     PROB30 
     TEMPO 2422/2424 BKN010
       
EGNX 240220Z 35017G27KT 9999 BKN010 14/13 Q1011
TAF AMD EGNX 240226Z 2402/2424 35014KT 9999 FEW012 SCT025 
     TEMPO 2402/2409 36017G27KT 7000 RA BKN012 
     PROB30 
     TEMPO 2402/2406 BKN008 
     PROB30 
     TEMPO 2409/2412 BKN014
       
EGOM 240150Z AUTO 36007KT 6000 BR BKN003/// 12/12 Q1014
EGOP 240150Z AUTO 31008KT 9999 // BKN020/// SCT050/// 15/13 Q1015
EGOS 240150Z AUTO 34015G25KT 9999 OVC023/// 16/12 Q1013 RERA
EGOV 240150Z AUTO 33007KT 9999 OVC050/// 16/13 Q1016
EGPA 240220Z AUTO 01011KT 9999 BKN014/// 12/10 Q1018
TAF EGPA 240203Z 2403/2412 02010KT 9999 SCT007 BKN012 
     TEMPO 2403/2409 8000 BKN006 
     PROB40 
     TEMPO 2403/2409 4000 BR BKN004 
     TEMPO 2409/2412 SCT012 BKN016
       
EGPB 240220Z AUTO 01009KT 9999 OVC009/// 12/10 Q1017
TAF EGPB 240203Z 2403/2412 35009KT 9999 SCT012 BKN015 
     TEMPO 2403/2412 7000 BKN008 
     PROB40 
     TEMPO 2403/2409 4000 BR SCT003 BKN005
       
EGPC 240220Z AUTO 35011KT 9999 OVC015/// 12/09 Q1018
TAF EGPC 240203Z 2403/2412 35009KT 9999 SCT007 BKN012 
     TEMPO 2403/2406 4000 BR BKN004 
     TEMPO 2406/2412 SCT010 BKN015
       
EGPD 240220Z AUTO 34016KT 9999 OVC007 12/11 Q1016 NOSIG
TAF EGPD 232303Z 2400/2424 34012KT 9999 SCT004 BKN007 
     TEMPO 2400/2409 4000 -DZ BR OVC003 
     PROB30 
     TEMPO 2400/2405 2000 BKN001 
     BECMG 2408/2410 BKN020 
     BECMG 2417/2420 BKN012 
     TEMPO 2420/2424 BKN007
       
EGPE 240220Z AUTO 05006KT 9999 FEW017/// 12/11 Q1018
TAF EGPE 240203Z 2403/2412 04005KT 9999 SCT012 
     TEMPO 2403/2405 5000 BR BKN009
       
EGPF 240220Z AUTO 23005KT 9999 NCD 12/11 Q1016
TAF EGPF 232257Z 2400/2424 31005KT 9999 SCT035 
     PROB30 2400/2406 8000 
     PROB30 
     TEMPO 2412/2419 6000 SHRA
       
EGPH 240220Z 13001KT CAVOK 12/11 Q1016
TAF EGPH 232303Z 2400/2424 VRB03KT 9999 FEW030 SCT045 
     PROB30 2400/2407 4000 BR 
     BECMG 2408/2411 08010KT
       
EGPI 240220Z AUTO 01002KT 9999 SCT042/// 11/10 Q1017
TAF EGPI 240201Z 2403/2412 35008KT 9999 FEW040
       
EGPK 240150Z 00000KT 9999 FEW043 13/11 Q1017
TAF EGPK 232257Z 2400/2424 30005KT 9999 FEW040
       
EGPL 240220Z AUTO 06003KT 9999 NCD 12/11 Q1019
TAF EGPL 240203Z 2403/2412 05007KT 9999 FEW020 
     PROB30 
     TEMPO 2403/2409 BKN008
       
EGPM 240220Z AUTO 01010KT 9999 OVC006/// 12/11 Q1017
TAF EGPM 240203Z 2403/2412 36009KT 9999 SCT007 BKN010 
     TEMPO 2403/2412 7000 BKN006 
     PROB40 
     TEMPO 2403/2409 4000 BR BKN004
       
EGPO 240220Z AUTO 34005KT 9999 SCT009/// 11/11 Q1020
TAF EGPO 240203Z 2403/2412 01008KT 9999 SCT008 
     TEMPO 2403/2409 7000 BKN008 
     PROB30 
     TEMPO 2403/2406 4000 BR BKN004
       
EGPU 240220Z AUTO 35008KT 9999 NCD 13/13 Q1018
EGQK 240150Z AUTO 36010KT 9999 FEW006/// BKN018/// 13/11 Q1018
EGQL 240150Z 02005KT 9999 SCT027 BKN070 14/12 Q1016 BLU
TAF EGQL 240124Z 2403/2412 05010KT 9999 BKN030
       
EGQM 240150Z AUTO 33014KT 7000 BR OVC005/// 13/13 Q1013
EGQS 240150Z 36013KT 9999 SCT009 BKN022 13/10 Q1018 GRN
TAF EGQS 240121Z 2403/2421 35012KT 9999 BKN009 
     TEMPO 2403/2409 4000 BR BKN004 
     PROB40 2403/2406 0500 FG BKN000 
     PROB30 
     TEMPO 2409/2418 SCT015
       
EGSH 240220Z AUTO 27005KT 9999 NCD 13/12 Q1009
TAF EGSH 240156Z 2403/2412 26007KT 9999 SCT030 
     TEMPO 2403/2412 8000 RA BKN009 
     PROB30 
     TEMPO 2404/2410 4000 RADZ BKN004 
     BECMG 2406/2409 32011KT
       
EGSS 240220Z AUTO 27004KT 9999 -RA NCD 13/12 Q1010
TAF EGSS 232259Z 2400/2506 27005KT 9999 SCT035 
     BECMG 2402/2405 BKN009 
     TEMPO 2402/2417 8000 RA 
     PROB30 
     TEMPO 2404/2410 3000 RADZ BKN004 
     BECMG 2406/2409 33013KT 
     PROB30 
     TEMPO 2409/2417 33015G25KT 
     BECMG 2413/2416 BKN014 
     BECMG 2417/2420 SCT015 
     PROB40 
     TEMPO 2420/2506 8000 -RA BKN006
       
EGTE 240150Z 31011KT 9999 FEW012 14/13 Q1014
EGTK 232120Z 27005KT CAVOK 16/13 Q1012
EGUB 240150Z AUTO 25007KT 6000 // SCT005/// BKN019/// 14/14 Q1011
EGUL 240237Z AUTO 27005KT 9999 FEW012 BKN020 BKN035 13/13 A2980 RMK AO2 CIG 020V035 BKN020 V SCT SLP094
TAF EGUL 232007Z 2320/2502 30006KT 9999 BKN060 QNH2980INS 
     BECMG 2404/2405 30009KT 9999 BKN010 QNH2981INS 
     TEMPO 2405/2409 BKN005 
     BECMG 2408/2409 32012G25KT 8000 -SHRA BKN010 610809 QNH2981INS 
     BECMG 2417/2418 33015G20KT 8000 -SHRA BKN007 QNH2980INS 
     BECMG 2421/2422 33012G20KT 9999 NSW BKN005 QNH2979INS TX19/2414Z TN13/2402Z
       
EGUN 240228Z AUTO 26007KT 9999 SCT016 BKN022 OVC033 14/14 A2980 RMK AO2 CIG 016V034 SLP094
TAF EGUN 232007Z 2320/2502 30006KT 9999 BKN060 QNH2980INS 
     BECMG 2404/2405 30009KT 9999 BKN010 QNH2981INS 
     TEMPO 2405/2409 BKN005 
     BECMG 2408/2409 32012G25KT 8000 -SHRA BKN010 610809 QNH2981INS 
     BECMG 2417/2418 33015G20KT 8000 -SHRA BKN007 QNH2980INS 
     BECMG 2421/2422 33012G20KT 9999 NSW BKN005 QNH2979INS TX19/2414Z TN13/2402Z
       
EGUW 240150Z AUTO 26005KT 5000 BR BKN070/// 12/11 Q1009 RERA
EGVA 240158Z AUTO 29009KT 9999 OVC016 14/13 A2987 RMK AO2 SLP117 T01440125 $
EGVN 240232Z 31009KT 6000 -RA BKN010 OVC018 15/14 Q1011 GRN TEMPO 9999 NSW FEW010 OVC018 WHT
TAF EGVN 240130Z 2403/2503 30008KT 9999 BKN020 
     TEMPO 2403/2410 5000 -RA BKN012 
     PROB40 
     TEMPO 2403/2408 4000 -RADZ SCT006 
     BECMG 2405/2407 36015KT 
     BECMG 2411/2413 SCT030 
     BECMG 2417/2419 33007KT
       
EGVO 240150Z AUTO 29008KT 9999 -RA FEW031/// SCT039/// BKN046/// 14/13 Q1011
EGVP 240150Z AUTO 29007KT 9999 // BKN032/// SCT050/// 14/13 Q1012
EGWU 240150Z AUTO 27005KT 9999 // BKN032/// BKN045/// 15/13 Q1011
TAF EGWU 231934Z 2321/2415 25005KT 9999 BKN045 
     BECMG 2402/2405 BKN010 
     TEMPO 2402/2411 7000 -RADZ 
     PROB40 
     TEMPO 2405/2408 FEW010 
     BECMG 2412/2415 BKN015
       
EGXC 240150Z 29003KT 9999 FEW004 BKN013 OVC018 14/14 Q1009 GRN
TAF EGXC 240141Z 2403/2421 34008KT 9999 BKN010 
     PROB40 
     TEMPO 2403/2411 4000 -RADZ SCT004 
     PROB30 
     TEMPO 2411/2420 4000 -RADZ
       
EGXE 240150Z AUTO 35014KT 9999 BKN010/// BKN050/// 14/13 Q1012
EGXP 240150Z AUTO 32009KT 9999 // SCT004/// BKN013/// 15/14 Q1009
EGXS 240150Z AUTO 24003KT 5000 // BKN008/// SCT017/// 14/14 Q1009
EGXT 240150Z AUTO 32007KT 9999 BKN006/// SCT014/// 14/14 Q1009 RERA
EGXU 240150Z AUTO 35014KT 9999 // BKN012/// 15/13 Q1011
EGXV 240150Z AUTO 01011KT 6000 -RA BKN005/// SCT014/// 14/14 Q1010
EGXW 240150Z 33010KT 9999 -DZ BKN003 OVC010 15/14 Q1009 YLO2
TAF EGXW 240122Z 2403/2421 30008KT 9999 -RA BKN008 
     PROB40 2403/2408 2500 -RADZ BKN003 
     BECMG 2405/2408 33015KT 
     PROB40 
     TEMPO 2408/2410 4000 -RADZ SCT006 
     PROB30 
     TEMPO 2410/2416 4000 -RADZ 
     BECMG 2415/2418 BKN015
       
EGXZ 240150Z AUTO 35016KT 9999 -DZ BKN009/// BKN017/// 14/13 Q1012
EGYD 240150Z AUTO 33012KT 9999 // BKN003/// 15/14 Q1009
EGYM 240150Z AUTO 23004KT 9999 FEW021/// BKN037/// 14/13 Q1009
EGYP 240150Z 28019KT 9999 BKN029 04/02 Q0991 BLU
TAF EGYP 240129Z 2403/2421 27015KT 9999 SCT030 
     PROB30 
     TEMPO 2403/2406 SCT022 
     BECMG 2409/2412 31015KT 
     PROB30 
     TEMPO 2415/2418 31020G30KT
       
EGFF 240220Z AUTO 29011KT 9999 BKN022 14/13 Q1014
TAF EGFF 232301Z 2400/2424 29012KT 9999 FEW014 
     PROB30 
     TEMPO 2400/2403 BKN014
       
EGLC 240220Z AUTO 27009KT 240V310 9999 -RA FEW045/// //////TCU 16/14 Q1010
TAF EGLC 240156Z 2403/2412 26005KT 9999 SCT030 
     BECMG 2403/2406 BKN012 
     TEMPO 2403/2412 8000 RA BKN008 
     PROB30 
     TEMPO 2404/2410 4000 RADZ 
     BECMG 2405/2408 33012KT
       
EGAC 232120Z 32010KT CAVOK 18/14 Q1016
EGXC 240150Z 29003KT 9999 FEW004 BKN013 OVC018 14/14 Q1009 GRN
TAF EGXC 240141Z 2403/2421 34008KT 9999 BKN010 
     PROB40 
     TEMPO 2403/2411 4000 -RADZ SCT004 
     PROB30 
     TEMPO 2411/2420 4000 -RADZ
       
EGYD 240150Z AUTO 33012KT 9999 // BKN003/// 15/14 Q1009
EGDR 240150Z AUTO 25004KT 9999 // NCD 14/13 Q1017
EGPD 240220Z AUTO 34016KT 9999 OVC007 12/11 Q1016 NOSIG
TAF EGPD 232303Z 2400/2424 34012KT 9999 SCT004 BKN007 
     TEMPO 2400/2409 4000 -DZ BR OVC003 
     PROB30 
     TEMPO 2400/2405 2000 BKN001 
     BECMG 2408/2410 BKN020 
     BECMG 2417/2420 BKN012 
     TEMPO 2420/2424 BKN007
       
EGNX 240220Z 35017G27KT 9999 BKN010 14/13 Q1011
TAF AMD EGNX 240226Z 2402/2424 35014KT 9999 FEW012 SCT025 
     TEMPO 2402/2409 36017G27KT 7000 RA BKN012 
     PROB30 
     TEMPO 2402/2406 BKN008 
     PROB30 
     TEMPO 2409/2412 BKN014
       
EGPH 240220Z 13001KT CAVOK 12/11 Q1016
TAF EGPH 232303Z 2400/2424 VRB03KT 9999 FEW030 SCT045 
     PROB30 2400/2407 4000 BR 
     BECMG 2408/2411 08010KT
       
EGTE 240150Z 31011KT 9999 FEW012 14/13 Q1014
EGVA 240158Z AUTO 29009KT 9999 OVC016 14/13 A2987 RMK AO2 SLP117 T01440125 $
EGKK 240220Z 21004KT 9999 -RA FEW043 14/13 Q1011
TAF EGKK 232301Z 2400/2506 26005KT 9999 FEW015 SCT030 
     TEMPO 2400/2412 7000 RA BKN012 
     PROB30 
     TEMPO 2403/2409 BKN008 
     BECMG 2406/2409 32010KT 
     PROB30 
     TEMPO 2412/2418 8000 -RA 
     PROB30 
     TEMPO 2500/2506 BKN012
       
EGPF 240220Z AUTO 23005KT 9999 NCD 12/11 Q1016
TAF EGPF 232257Z 2400/2424 31005KT 9999 SCT035 
     PROB30 2400/2406 8000 
     PROB30 
     TEMPO 2412/2419 6000 SHRA
       
EGLL 240220Z AUTO 26008KT 9999 -RA SCT012 OVC026 15/13 Q1011 TEMPO 7000 RADZ BKN010
TAF EGLL 232257Z 2400/2506 28008KT 9999 SCT045 
     BECMG 2400/2403 7000 -RA BKN012 
     TEMPO 2403/2409 BKN008 
     PROB30 
     TEMPO 2404/2407 4500 RADZ 
     BECMG 2406/2409 34011KT 9999 NSW SCT018 
     TEMPO 2411/2418 33015G26KT
       
EGNJ 240220Z AUTO 34012KT 9999 BKN004/// OVC007/// 15/15 Q1010
TAF EGNJ 240201Z 2403/2412 35012KT 9999 BKN010 
     TEMPO 2403/2412 3000 RA BKN003
       
EGPE 240220Z AUTO 05006KT 9999 FEW017/// 12/11 Q1018
TAF EGPE 240203Z 2403/2412 04005KT 9999 SCT012 
     TEMPO 2403/2405 5000 BR BKN009
       
EGPI 240220Z AUTO 01002KT 9999 SCT042/// 11/10 Q1017
TAF EGPI 240201Z 2403/2412 35008KT 9999 FEW040
       
EGTK 232120Z 27005KT CAVOK 16/13 Q1012
EGQK 240150Z AUTO 36010KT 9999 FEW006/// BKN018/// 13/11 Q1018
EGPA 240220Z AUTO 01011KT 9999 BKN014/// 12/10 Q1018
TAF EGPA 240203Z 2403/2412 02010KT 9999 SCT007 BKN012 
     TEMPO 2403/2409 8000 BKN006 
     PROB40 
     TEMPO 2403/2409 4000 BR BKN004 
     TEMPO 2409/2412 SCT012 BKN016
       
EGUL 240237Z AUTO 27005KT 9999 FEW012 BKN020 BKN035 13/13 A2980 RMK AO2 CIG 020V035 BKN020 V SCT SLP094
TAF EGUL 232007Z 2320/2502 30006KT 9999 BKN060 QNH2980INS 
     BECMG 2404/2405 30009KT 9999 BKN010 QNH2981INS 
     TEMPO 2405/2409 BKN005 
     BECMG 2408/2409 32012G25KT 8000 -SHRA BKN010 610809 QNH2981INS 
     BECMG 2417/2418 33015G20KT 8000 -SHRA BKN007 QNH2980INS 
     BECMG 2421/2422 33012G20KT 9999 NSW BKN005 QNH2979INS TX19/2414Z TN13/2402Z
       
EGNM 240220Z 01015KT 340V050 8000 BKN011 13/12 Q1012
TAF AMD EGNM 240231Z 2402/2424 36014KT 9999 SCT007 BKN012 
     TEMPO 2402/2404 01017G27KT 
     TEMPO 2402/2409 3000 RADZ BKN004 
     TEMPO 2409/2412 8000 BKN008 
     BECMG 2412/2415 SCT018 
     BECMG 2419/2422 36004KT 
     PROB30 2421/2424 BKN012
       
EGXE 240150Z AUTO 35014KT 9999 BKN010/// BKN050/// 14/13 Q1012
EGQL 240150Z 02005KT 9999 SCT027 BKN070 14/12 Q1016 BLU
TAF EGQL 240124Z 2403/2412 05010KT 9999 BKN030
       
EGXU 240150Z AUTO 35014KT 9999 // BKN012/// 15/13 Q1011
EGGP 240220Z AUTO 33013KT 9999 FEW037/// 16/13 Q1014
TAF EGGP 232301Z 2400/2424 33012KT 9999 FEW020
       
EGAE 232050Z 28007KT 9999 FEW012 17/14 Q1018
EGQS 240150Z 36013KT 9999 SCT009 BKN022 13/10 Q1018 GRN
TAF EGQS 240121Z 2403/2421 35012KT 9999 BKN009 
     TEMPO 2403/2409 4000 BR BKN004 
     PROB40 2403/2406 0500 FG BKN000 
     PROB30 
     TEMPO 2409/2418 SCT015
       
EGGW 240220Z AUTO 22006KT 5000 -DZ OVC003 12/12 Q1010 RERA
TAF AMD EGGW 240138Z 2401/2424 27007KT 9999 SCT030 
     BECMG 2401/2404 33012KT BKN008 
     TEMPO 2401/2415 8000 RA 
     PROB40 
     TEMPO 2401/2407 3000 RADZ BKN003 
     PROB30 
     TEMPO 2409/2416 33015G25KT 
     BECMG 2412/2415 BKN012 
     BECMG 2415/2418 SCT020
       
EGMD 240220Z AUTO 29006KT 9999 -RA NCD 14/14 Q1010
TAF EGMD 240156Z 2403/2412 28007KT 9999 SCT040 
     TEMPO 2404/2412 8000 RA BKN014 
     PROB30 
     TEMPO 2405/2410 4000 RADZ BKN009 
     BECMG 2406/2409 34012KT
       
EGCC 240220Z AUTO 33008KT 9999 OVC024 16/12 Q1013 NOSIG
TAF EGCC 232301Z 2400/2506 33009KT 9999 FEW012 SCT018 
     TEMPO 2400/2407 BKN012 
     TEMPO 2500/2506 8000 BKN010
       
EGYM 240150Z AUTO 23004KT 9999 FEW021/// BKN037/// 14/13 Q1009
EGUN 240228Z AUTO 26007KT 9999 SCT016 BKN022 OVC033 14/14 A2980 RMK AO2 CIG 016V034 SLP094
TAF EGUN 232007Z 2320/2502 30006KT 9999 BKN060 QNH2980INS 
     BECMG 2404/2405 30009KT 9999 BKN010 QNH2981INS 
     TEMPO 2405/2409 BKN005 
     BECMG 2408/2409 32012G25KT 8000 -SHRA BKN010 610809 QNH2981INS 
     BECMG 2417/2418 33015G20KT 8000 -SHRA BKN007 QNH2980INS 
     BECMG 2421/2422 33012G20KT 9999 NSW BKN005 QNH2979INS TX19/2414Z TN13/2402Z
       
EGNT 240220Z 34013KT 7000 -RA BKN005 13/12 Q1014
TAF EGNT 232257Z 2400/2424 35012KT 9999 BKN007 
     PROB40 2400/2410 6000 -RA BKN004 
     PROB30 
     TEMPO 2400/2410 01015G25KT 
     BECMG 2409/2412 SCT015 
     PROB30 
     TEMPO 2422/2424 BKN010
       
EGWU 240150Z AUTO 27005KT 9999 // BKN032/// BKN045/// 15/13 Q1011
TAF EGWU 231934Z 2321/2415 25005KT 9999 BKN045 
     BECMG 2402/2405 BKN010 
     TEMPO 2402/2411 7000 -RADZ 
     PROB40 
     TEMPO 2405/2408 FEW010 
     BECMG 2412/2415 BKN015
       
EGSH 240220Z AUTO 27005KT 9999 NCD 13/12 Q1009
TAF EGSH 240156Z 2403/2412 26007KT 9999 SCT030 
     TEMPO 2403/2412 8000 RA BKN009 
     PROB30 
     TEMPO 2404/2410 4000 RADZ BKN004 
     BECMG 2406/2409 32011KT
       
EGVO 240150Z AUTO 29008KT 9999 -RA FEW031/// SCT039/// BKN046/// 14/13 Q1011
EGPK 240150Z 00000KT 9999 FEW043 13/11 Q1017
TAF EGPK 232257Z 2400/2424 30005KT 9999 FEW040
       
EGXP 240150Z AUTO 32009KT 9999 // SCT004/// BKN013/// 15/14 Q1009
EGPM 240220Z AUTO 01010KT 9999 OVC006/// 12/11 Q1017
TAF EGPM 240203Z 2403/2412 36009KT 9999 SCT007 BKN010 
     TEMPO 2403/2412 7000 BKN006 
     PROB40 
     TEMPO 2403/2409 4000 BR BKN004
       
EGOS 240150Z AUTO 34015G25KT 9999 OVC023/// 16/12 Q1013 RERA
EGHI 232150Z 20001KT 9999 MIFG FEW025 13/11 Q1013
EGMC 240150Z 27005KT 9999 -RA FEW009 14/12 Q1010
TAF EGMC 240156Z 2403/2412 27007KT 9999 FEW015 SCT025 
     TEMPO 2403/2412 8000 RA 
     BECMG 2404/2407 34014KT BKN012 
     PROB30 
     TEMPO 2406/2410 4000 RADZ BKN007
       
EGDX 240150Z AUTO 28009KT 9999 BKN026/// BKN110/// 15/13 Q1014
EGSS 240220Z AUTO 27004KT 9999 -RA NCD 13/12 Q1010
TAF EGSS 232259Z 2400/2506 27005KT 9999 SCT035 
     BECMG 2402/2405 BKN009 
     TEMPO 2402/2417 8000 RA 
     PROB30 
     TEMPO 2404/2410 3000 RADZ BKN004 
     BECMG 2406/2409 33013KT 
     PROB30 
     TEMPO 2409/2417 33015G25KT 
     BECMG 2413/2416 BKN014 
     BECMG 2417/2420 SCT015 
     PROB40 
     TEMPO 2420/2506 8000 -RA BKN006
       
EGPO 240220Z AUTO 34005KT 9999 SCT009/// 11/11 Q1020
TAF EGPO 240203Z 2403/2412 01008KT 9999 SCT008 
     TEMPO 2403/2409 7000 BKN008 
     PROB30 
     TEMPO 2403/2406 4000 BR BKN004
       
EGPB 240220Z AUTO 01009KT 9999 OVC009/// 12/10 Q1017
TAF EGPB 240203Z 2403/2412 35009KT 9999 SCT012 BKN015 
     TEMPO 2403/2412 7000 BKN008 
     PROB40 
     TEMPO 2403/2409 4000 BR SCT003 BKN005
       
EGPU 240220Z AUTO 35008KT 9999 NCD 13/13 Q1018
EGXZ 240150Z AUTO 35016KT 9999 -DZ BKN009/// BKN017/// 14/13 Q1012
EGOV 240150Z AUTO 33007KT 9999 OVC050/// 16/13 Q1016
EGXW 240150Z 33010KT 9999 -DZ BKN003 OVC010 15/14 Q1009 YLO2
TAF EGXW 240122Z 2403/2421 30008KT 9999 -RA BKN008 
     PROB40 2403/2408 2500 -RADZ BKN003 
     BECMG 2405/2408 33015KT 
     PROB40 
     TEMPO 2408/2410 4000 -RADZ SCT006 
     PROB30 
     TEMPO 2410/2416 4000 -RADZ 
     BECMG 2415/2418 BKN015
       
EGUW 240150Z AUTO 26005KT 5000 BR BKN070/// 12/11 Q1009 RERA
EGPC 240220Z AUTO 35011KT 9999 OVC015/// 12/09 Q1018
TAF EGPC 240203Z 2403/2412 35009KT 9999 SCT007 BKN012 
     TEMPO 2403/2406 4000 BR BKN004 
     TEMPO 2406/2412 SCT010 BKN015
       
EGXT 240150Z AUTO 32007KT 9999 BKN006/// SCT014/// 14/14 Q1009 RERA
EGDY 240150Z 28008KT 9999 FEW030 SCT040 BKN050 15/13 Q1013 BLU